createdAt,value
2018-11-25T05:02:09.690Z,13.43
2018-11-25T05:04:40.908Z,13.97
2018-11-25T05:07:10.302Z,18.17
2018-11-25T05:09:39.647Z,18.17
2018-11-25T05:12:08.510Z,17.20
2018-11-25T05:14:38.372Z,18.47
2018-11-25T05:17:07.186Z,18.20
2018-11-25T05:19:35.726Z,18.60
2018-11-25T05:22:04.168Z,19.47
2018-11-25T05:24:32.742Z,19.70
2018-11-25T05:27:01.264Z,19.27
2018-11-25T05:29:29.797Z,21.77
2018-11-25T05:31:58.023Z,22.87
2018-11-25T05:34:26.131Z,22.20
2018-11-25T05:36:54.298Z,23.00
2018-11-25T05:39:22.387Z,21.93
2018-11-25T05:41:50.651Z,23.70
2018-11-25T05:44:18.744Z,23.10
2018-11-25T05:46:46.850Z,21.33
2018-11-25T05:49:14.985Z,21.07
2018-11-25T05:51:43.142Z,23.07
2018-11-25T05:54:11.327Z,24.80
2018-11-25T05:56:39.524Z,22.50
2018-11-25T05:59:07.603Z,22.60
2018-11-25T06:01:36.262Z,22.00
2018-11-25T06:04:04.358Z,22.70
2018-11-25T06:06:32.431Z,20.23
2018-11-25T06:09:00.624Z,20.73
2018-11-25T06:11:28.775Z,20.47
2018-11-25T06:13:56.868Z,22.67
2018-11-25T06:16:24.972Z,21.40
2018-11-25T06:18:53.555Z,27.77
2018-11-25T06:21:21.680Z,24.20
2018-11-25T06:23:49.746Z,22.73
2018-11-25T06:26:18.559Z,29.33
2018-11-25T06:28:46.617Z,25.90
2018-11-25T06:31:14.736Z,22.00
2018-11-25T06:33:42.850Z,22.37
2018-11-25T06:36:10.985Z,22.23
2018-11-25T06:38:39.148Z,22.27
2018-11-25T06:41:07.252Z,24.37
2018-11-25T06:43:35.548Z,22.80
2018-11-25T06:46:05.787Z,23.03
2018-11-25T06:48:33.906Z,21.33
2018-11-25T06:51:01.982Z,20.83
2018-11-25T06:53:30.256Z,21.17
2018-11-25T06:55:58.373Z,20.07
2018-11-25T06:58:26.612Z,22.40
2018-11-25T07:00:54.707Z,20.67
2018-11-25T07:03:22.799Z,21.60
2018-11-25T07:05:50.855Z,21.93
2018-11-25T07:08:18.955Z,20.70
2018-11-25T07:10:47.027Z,20.20
2018-11-25T07:13:15.128Z,21.37
2018-11-25T07:15:43.260Z,20.23
2018-11-25T07:18:11.465Z,18.73
2018-11-25T07:20:39.559Z,20.03
2018-11-25T07:23:07.696Z,19.40
2018-11-25T07:25:35.987Z,21.47
2018-11-25T07:28:17.894Z,20.70
2018-11-25T07:30:32.460Z,19.70
2018-11-25T07:33:00.796Z,21.00
2018-11-25T07:35:28.890Z,20.50
2018-11-25T07:37:56.974Z,21.10
2018-11-25T07:40:25.771Z,19.43
2018-11-25T07:42:53.912Z,20.17
2018-11-25T07:45:30.134Z,19.30
2018-11-25T07:47:51.139Z,18.57
2018-11-25T07:50:19.266Z,18.33
2018-11-25T07:52:47.984Z,18.40
2018-11-25T07:55:24.869Z,20.30
2018-11-25T07:57:53.863Z,18.60
2018-11-25T08:00:23.087Z,17.97
2018-11-25T08:02:51.670Z,18.80
2018-11-25T08:05:22.092Z,17.90
2018-11-25T08:07:50.168Z,18.93
2018-11-25T08:10:18.270Z,18.07
2018-11-25T08:12:46.675Z,18.47
2018-11-25T08:15:16.755Z,19.33
2018-11-25T08:17:44.884Z,19.43
2018-11-25T08:20:14.022Z,18.10
2018-11-25T08:22:42.087Z,18.80
2018-11-25T08:25:11.203Z,17.27
2018-11-25T08:27:39.924Z,18.43
2018-11-25T08:30:12.586Z,16.20
2018-11-25T08:32:40.736Z,18.80
2018-11-25T08:35:09.555Z,18.40
2018-11-25T08:37:37.891Z,18.50
2018-11-25T08:40:09.173Z,17.20
2018-11-25T08:42:37.325Z,17.07
2018-11-25T08:45:09.291Z,16.63
2018-11-25T08:47:37.500Z,15.90
2018-11-25T08:50:08.602Z,16.03
2018-11-25T08:52:36.847Z,16.03
2018-11-25T08:55:06.402Z,16.47
2018-11-25T08:57:34.578Z,17.23
2018-11-25T09:00:02.732Z,14.90
2018-11-25T09:02:30.996Z,16.70
2018-11-25T09:04:59.200Z,16.30
2018-11-25T09:07:27.311Z,16.27
2018-11-25T09:09:55.419Z,15.80
2018-11-25T09:12:23.647Z,16.67
2018-11-25T09:14:52.011Z,19.00
2018-11-25T09:17:20.063Z,14.97
2018-11-25T09:19:48.127Z,16.70
2018-11-25T09:22:16.232Z,17.30
2018-11-25T09:24:44.355Z,13.90
2018-11-25T09:27:12.520Z,14.83
2018-11-25T09:29:40.625Z,13.70
2018-11-25T09:32:08.803Z,13.50
2018-11-25T09:34:36.895Z,14.70
2018-11-25T09:37:05.118Z,14.47
2018-11-25T09:39:33.334Z,15.30
2018-11-25T09:42:01.367Z,14.37
2018-11-25T09:44:29.466Z,15.17
2018-11-25T09:46:57.647Z,14.60
2018-11-25T09:49:25.690Z,14.90
2018-11-25T09:51:53.783Z,14.50
2018-11-25T09:54:21.911Z,14.30
2018-11-25T09:56:50.015Z,14.50
2018-11-25T09:59:18.111Z,15.23
2018-11-25T10:01:46.187Z,13.30
2018-11-25T10:04:14.388Z,12.13
2018-11-25T10:06:42.479Z,12.73
2018-11-25T10:09:10.593Z,12.80
2018-11-25T10:11:38.700Z,13.07
2018-11-25T10:14:06.767Z,11.57
2018-11-25T10:16:34.843Z,11.97
2018-11-25T10:19:03.027Z,12.30
2018-11-25T10:21:31.116Z,13.10
2018-11-25T10:23:59.240Z,12.30
2018-11-25T10:26:27.355Z,13.30
2018-11-25T10:28:55.415Z,12.90
2018-11-25T10:31:23.557Z,13.10
2018-11-25T10:33:51.643Z,13.00
2018-11-25T10:36:19.715Z,13.40
2018-11-25T10:38:47.772Z,13.33
2018-11-25T10:41:15.979Z,14.20
2018-11-25T10:43:44.049Z,13.30
2018-11-25T10:46:12.111Z,11.90
2018-11-25T10:48:40.197Z,12.87
2018-11-25T10:51:08.252Z,12.90
2018-11-25T10:53:36.352Z,12.93
2018-11-25T10:56:04.479Z,13.33
2018-11-25T10:58:32.831Z,13.00
2018-11-25T11:01:06.449Z,13.90
2018-11-25T11:03:40.151Z,13.23
2018-11-25T11:06:13.699Z,17.90
2018-11-25T11:08:48.654Z,15.30
2018-11-25T11:11:16.903Z,13.20
2018-11-25T11:13:45.027Z,13.17
2018-11-25T11:16:13.105Z,13.87
2018-11-25T11:18:41.220Z,13.10
2018-11-25T11:21:09.284Z,14.10
2018-11-25T11:23:37.372Z,13.87
2018-11-25T11:26:07.079Z,12.60
2018-11-25T11:28:33.568Z,14.17
2018-11-25T11:31:01.619Z,14.23
2018-11-25T11:33:29.723Z,13.10
2018-11-25T11:35:57.775Z,13.27
2018-11-25T11:38:25.827Z,13.67
2018-11-25T11:40:53.991Z,14.77
2018-11-25T11:43:22.041Z,14.83
2018-11-25T11:45:53.195Z,15.30
2018-11-25T11:48:21.243Z,15.30
2018-11-25T11:50:50.348Z,14.80
2018-11-25T11:53:18.408Z,16.70
2018-11-25T11:55:46.481Z,14.90
2018-11-25T11:58:15.305Z,15.47
2018-11-25T12:00:43.375Z,14.90
2018-11-25T12:03:11.456Z,15.97
2018-11-25T12:05:39.838Z,15.00
2018-11-25T12:08:07.577Z,14.77
2018-11-25T12:10:35.811Z,15.77
2018-11-25T12:13:04.035Z,16.80
2018-11-25T12:15:32.286Z,15.50
2018-11-25T12:18:00.393Z,18.70
2018-11-25T12:20:29.624Z,15.00
2018-11-25T12:22:58.033Z,16.73
2018-11-25T12:25:26.114Z,14.23
2018-11-25T12:27:54.314Z,17.03
2018-11-25T12:30:22.403Z,14.50
2018-11-25T12:32:51.356Z,16.70
2018-11-25T12:35:19.461Z,14.47
2018-11-25T12:37:47.546Z,15.00
2018-11-25T12:40:19.683Z,18.47
2018-11-25T12:43:02.488Z,15.50
2018-11-25T12:45:30.563Z,17.77
2018-11-25T12:47:58.620Z,14.40
2018-11-25T12:50:27.115Z,14.47
2018-11-25T12:52:55.427Z,14.43
2018-11-25T12:55:24.687Z,14.87
2018-11-25T12:57:52.879Z,13.57
2018-11-25T13:00:25.409Z,15.17
2018-11-25T13:02:53.484Z,14.33
2018-11-25T13:05:21.559Z,14.23
2018-11-25T13:07:49.624Z,15.40
2018-11-25T13:10:17.741Z,16.40
2018-11-25T13:12:45.936Z,16.00
2018-11-25T13:15:14.481Z,15.67
2018-11-25T13:17:43.756Z,15.20
2018-11-25T13:20:13.338Z,15.60
2018-11-25T13:22:41.618Z,15.60
2018-11-25T13:25:11.128Z,15.50
2018-11-25T13:27:39.233Z,15.77
2018-11-25T13:30:20.218Z,15.53
2018-11-25T13:32:50.326Z,14.47
2018-11-25T13:35:18.600Z,16.47
2018-11-25T13:37:46.862Z,17.20
2018-11-25T13:40:16.114Z,15.87
2018-11-25T13:42:44.297Z,17.00
2018-11-25T13:45:12.641Z,16.87
2018-11-25T13:47:40.845Z,17.97
2018-11-25T13:50:10.711Z,15.87
2018-11-25T13:52:38.914Z,17.50
2018-11-25T13:55:11.523Z,20.43
2018-11-25T13:57:39.805Z,19.33
2018-11-25T14:00:16.372Z,18.03
2018-11-25T14:02:46.105Z,15.37
2018-11-25T14:05:14.267Z,16.40
2018-11-25T14:07:42.396Z,16.53
2018-11-25T14:10:18.629Z,16.73
2018-11-25T14:12:46.744Z,16.70
2018-11-25T14:15:14.925Z,16.97
2018-11-25T14:17:43.079Z,16.87
2018-11-25T14:20:11.352Z,17.17
2018-11-25T14:22:40.587Z,17.13
2018-11-25T14:25:11.382Z,16.40
2018-11-25T14:27:39.479Z,20.53
2018-11-25T14:30:13.467Z,24.37
2018-11-25T14:32:40.156Z,25.60
2018-11-25T14:35:10.052Z,28.30
2018-11-25T14:37:38.132Z,21.40
2018-11-25T14:40:09.619Z,17.10
2018-11-25T14:42:37.863Z,16.50
2018-11-25T14:45:11.835Z,18.90
2018-11-25T14:47:39.932Z,17.13
2018-11-25T14:50:09.904Z,15.50
2018-11-25T14:52:38.048Z,17.07
2018-11-25T14:55:09.504Z,17.40
2018-11-25T14:57:41.767Z,18.30
2018-11-25T15:00:13.335Z,16.60
2018-11-25T15:02:41.844Z,18.47
2018-11-25T15:05:13.673Z,17.40
2018-11-25T15:07:41.837Z,16.00
2018-11-25T15:10:10.795Z,15.90
2018-11-25T15:12:38.089Z,15.13
2018-11-25T15:15:10.409Z,17.30
2018-11-25T15:17:38.593Z,15.80
2018-11-25T15:20:09.085Z,16.60
2018-11-25T15:22:37.379Z,16.27
2018-11-25T15:27:36.965Z,16.40
2018-11-25T15:30:07.957Z,17.70
2018-11-25T15:32:37.162Z,20.23
2018-11-25T15:35:07.515Z,20.37
2018-11-25T15:37:37.786Z,21.07
2018-11-25T15:40:10.398Z,20.40
2018-11-25T15:42:38.693Z,20.87
2018-11-25T15:45:08.535Z,20.07
2018-11-25T15:47:36.675Z,19.80
2018-11-25T15:50:07.927Z,18.80
2018-11-25T15:52:36.005Z,20.03
2018-11-25T15:55:05.493Z,19.57
2018-11-25T15:57:33.734Z,24.27
2018-11-25T16:00:01.892Z,19.83
2018-11-25T16:02:30.001Z,22.93
2018-11-25T16:04:58.079Z,20.90
2018-11-25T16:07:26.948Z,20.77
2018-11-25T16:09:57.165Z,20.40
2018-11-25T16:12:25.370Z,21.47
2018-11-25T16:14:53.502Z,19.57
2018-11-25T16:17:21.597Z,20.27
2018-11-25T16:19:49.724Z,21.20
2018-11-25T16:22:17.799Z,20.93
2018-11-25T16:24:45.960Z,20.90
2018-11-25T16:27:14.040Z,23.53
2018-11-25T16:29:42.090Z,20.57
2018-11-25T16:32:10.251Z,21.10
2018-11-25T16:34:38.323Z,22.50
2018-11-25T16:37:07.565Z,20.20
2018-11-25T16:39:36.595Z,21.20
2018-11-25T16:42:04.888Z,22.10
2018-11-25T16:44:33.024Z,22.07
2018-11-25T16:47:01.215Z,20.90
2018-11-25T16:49:30.160Z,21.97
2018-11-25T16:51:58.327Z,24.33
2018-11-25T16:54:26.435Z,23.07
2018-11-25T16:56:55.795Z,22.00
2018-11-25T16:59:23.873Z,22.53
2018-11-25T17:01:51.952Z,21.43
2018-11-25T17:04:20.035Z,22.17
2018-11-25T17:06:50.996Z,22.03
2018-11-25T17:09:19.092Z,21.47
2018-11-25T17:11:48.267Z,22.80
2018-11-25T17:14:19.348Z,21.63
2018-11-25T17:16:47.466Z,21.30
2018-11-25T17:19:15.592Z,26.27
2018-11-25T17:21:43.721Z,24.17
2018-11-25T17:24:11.813Z,23.00
2018-11-25T17:26:39.871Z,25.87
2018-11-25T17:29:08.050Z,26.43
2018-11-25T17:31:36.140Z,20.77
2018-11-25T17:34:04.235Z,21.63
2018-11-25T17:36:32.313Z,21.10
2018-11-25T17:39:00.526Z,20.70
2018-11-25T17:41:28.643Z,21.37
2018-11-25T17:43:56.774Z,21.67
2018-11-25T17:46:24.917Z,20.70
2018-11-25T17:48:53.475Z,22.03
2018-11-25T17:51:21.593Z,20.50
2018-11-25T17:53:49.658Z,20.50
2018-11-25T17:56:17.747Z,20.90
2018-11-25T17:58:46.052Z,20.20
2018-11-25T18:01:14.210Z,19.77
2018-11-25T18:03:42.267Z,19.03
2018-11-25T18:06:12.943Z,20.00
2018-11-25T18:08:41.031Z,20.83
2018-11-25T18:11:09.103Z,20.20
2018-11-25T18:13:39.822Z,20.40
2018-11-25T18:16:10.391Z,21.73
2018-11-25T18:18:41.150Z,20.87
2018-11-25T18:21:14.221Z,19.63
2018-11-25T18:23:42.387Z,21.67
2018-11-25T18:26:10.559Z,20.87
2018-11-25T18:28:38.661Z,20.50
2018-11-25T18:31:07.996Z,21.10
2018-11-25T18:33:36.090Z,18.40
2018-11-25T18:36:04.180Z,19.53
2018-11-25T18:38:34.335Z,21.23
2018-11-25T18:41:02.592Z,18.73
2018-11-25T18:43:37.438Z,18.63
2018-11-25T18:46:09.982Z,21.10
2018-11-25T18:48:41.913Z,20.50
2018-11-25T18:51:10.551Z,19.10
2018-11-25T18:53:39.267Z,21.00
2018-11-25T18:56:08.901Z,19.97
2018-11-25T18:58:39.213Z,20.77
2018-11-25T19:01:34.021Z,21.90
2018-11-25T19:04:03.116Z,19.63
2018-11-25T19:06:31.585Z,21.47
2018-11-25T19:09:02.268Z,21.60
2018-11-25T19:11:32.699Z,21.50
2018-11-25T19:14:00.992Z,22.00
2018-11-25T19:16:30.654Z,21.00
2018-11-25T19:19:01.270Z,23.70
2018-11-25T19:21:29.527Z,22.20
2018-11-25T19:23:57.710Z,21.97
2018-11-25T19:26:25.855Z,20.17
2018-11-25T19:28:55.107Z,22.40
2018-11-25T19:31:23.329Z,22.33
2018-11-25T19:33:51.453Z,22.87
2018-11-25T19:36:20.575Z,21.00
2018-11-25T19:38:48.723Z,22.83
2018-11-25T19:41:16.874Z,21.40
2018-11-25T19:43:47.091Z,23.43
2018-11-25T19:46:15.261Z,22.20
2018-11-25T19:49:00.515Z,22.10
2018-11-25T19:51:31.762Z,22.80
2018-11-25T19:53:59.884Z,23.70
2018-11-25T19:56:28.006Z,23.40
2018-11-25T19:58:59.413Z,23.67
2018-11-25T20:01:28.429Z,21.10
2018-11-25T20:03:56.548Z,26.07
2018-11-25T20:06:25.359Z,24.57
2018-11-25T20:08:55.315Z,23.97
2018-11-25T20:11:23.458Z,22.40
2018-11-25T20:13:51.659Z,23.40
2018-11-25T20:16:28.463Z,22.90
2018-11-25T20:18:57.599Z,24.77
2018-11-25T20:21:31.207Z,21.57
2018-11-25T20:23:59.287Z,22.67
2018-11-25T20:26:27.409Z,23.00
2018-11-25T20:28:55.572Z,23.50
2018-11-25T20:31:24.654Z,22.50
2018-11-25T20:33:53.543Z,24.60
2018-11-25T20:36:21.639Z,22.83
2018-11-25T20:38:55.351Z,24.13
2018-11-25T20:41:23.502Z,22.60
2018-11-25T20:43:51.765Z,25.07
2018-11-25T20:46:25.387Z,23.03
2018-11-25T20:48:53.512Z,23.90
2018-11-25T20:51:26.965Z,23.03
2018-11-25T20:53:57.376Z,21.97
2018-11-25T20:56:25.453Z,21.30
2018-11-25T20:58:53.551Z,22.00
2018-11-25T21:01:21.619Z,23.47
2018-11-25T21:03:52.257Z,22.77
2018-11-25T21:06:20.362Z,23.43
2018-11-25T21:08:48.815Z,21.20
2018-11-25T21:11:16.917Z,23.80
2018-11-25T21:13:45.079Z,22.20
2018-11-25T21:16:13.233Z,21.40
2018-11-25T21:18:43.170Z,20.83
2018-11-25T21:21:11.361Z,21.87
2018-11-25T21:23:39.448Z,21.40
2018-11-25T21:26:07.644Z,21.37
2018-11-25T21:28:35.725Z,19.33
2018-11-25T21:31:03.812Z,20.27
2018-11-25T21:33:31.899Z,18.97
2018-11-25T21:36:00.024Z,20.30
2018-11-25T21:38:28.107Z,19.97
2018-11-25T21:40:56.228Z,20.30
2018-11-25T21:43:24.339Z,19.90
2018-11-25T21:45:53.986Z,28.20
2018-11-25T21:48:22.075Z,20.33
2018-11-25T21:50:50.158Z,19.27
2018-11-25T21:53:18.240Z,20.30
2018-11-25T21:55:46.326Z,19.23
2018-11-25T21:58:17.867Z,19.90
